createdAt,value
2019-05-30T00:02:08.257Z,9.90
2019-05-30T00:07:06.418Z,9.90
2019-05-30T00:12:05.335Z,9.90
2019-05-30T00:17:00.975Z,9.90
2019-05-30T00:21:58.678Z,9.90
2019-05-30T00:26:54.202Z,9.90
2019-05-30T00:31:49.753Z,9.90
2019-05-30T00:36:45.303Z,9.80
2019-05-30T00:41:40.878Z,9.80
2019-05-30T00:46:36.430Z,9.80
2019-05-30T00:51:32.927Z,9.80
2019-05-30T00:56:28.522Z,9.70
2019-05-30T01:01:24.377Z,9.70
2019-05-30T01:06:19.890Z,9.80
2019-05-30T01:11:15.446Z,9.80
2019-05-30T01:16:10.934Z,9.90
2019-05-30T01:21:25.317Z,9.90
2019-05-30T01:26:20.822Z,9.90
2019-05-30T01:31:16.378Z,9.90
2019-05-30T01:36:11.861Z,9.80
2019-05-30T01:41:08.091Z,9.80
2019-05-30T01:46:04.326Z,9.80
2019-05-30T01:51:00.301Z,9.80
2019-05-30T01:55:56.920Z,9.70
2019-05-30T02:00:52.463Z,9.70
2019-05-30T02:05:48.147Z,9.80
2019-05-30T02:10:44.150Z,9.80
2019-05-30T02:15:39.639Z,9.70
2019-05-30T02:20:35.324Z,9.90
2019-05-30T02:25:30.865Z,10.00
2019-05-30T02:30:26.312Z,10.10
2019-05-30T02:35:21.906Z,10.20
2019-05-30T02:40:17.856Z,10.20
2019-05-30T02:45:14.678Z,10.20
2019-05-30T02:50:13.261Z,10.30
2019-05-30T02:55:13.299Z,10.30
2019-05-30T03:00:16.655Z,10.30
2019-05-30T03:05:12.668Z,10.30
2019-05-30T03:10:14.925Z,10.30
2019-05-30T03:15:14.326Z,10.30
2019-05-30T03:20:20.285Z,10.30
2019-05-30T03:25:12.443Z,10.30
2019-05-30T03:30:22.109Z,10.30
2019-05-30T03:35:18.965Z,10.20
2019-05-30T03:40:06.536Z,10.20
2019-05-30T03:45:03.948Z,10.20
2019-05-30T03:50:00.508Z,10.20
2019-05-30T03:54:56.641Z,10.20
2019-05-30T03:59:57.312Z,10.20
2019-05-30T04:04:58.110Z,10.20
2019-05-30T04:09:55.843Z,10.30
2019-05-30T04:14:54.621Z,10.30
2019-05-30T04:19:50.107Z,10.30
2019-05-30T04:24:45.593Z,10.30
2019-05-30T04:29:41.173Z,10.30
2019-05-30T04:34:36.678Z,10.40
2019-05-30T04:39:32.252Z,10.40
2019-05-30T04:44:27.798Z,10.40
2019-05-30T04:49:23.727Z,10.40
2019-05-30T04:54:21.163Z,10.50
2019-05-30T04:59:17.966Z,10.50
2019-05-30T05:04:15.508Z,10.50
2019-05-30T05:09:11.978Z,10.60
2019-05-30T05:14:07.633Z,10.70
2019-05-30T05:19:03.129Z,10.80
2019-05-30T05:23:58.626Z,10.80
2019-05-30T05:28:54.178Z,11.00
2019-05-30T05:33:56.772Z,11.10
2019-05-30T05:38:48.262Z,11.20
2019-05-30T05:43:43.774Z,11.30
2019-05-30T05:48:39.257Z,11.30
2019-05-30T05:53:34.814Z,11.30
2019-05-30T05:58:30.367Z,11.30
2019-05-30T06:03:25.990Z,11.30
2019-05-30T06:08:21.620Z,11.30
2019-05-30T06:13:17.223Z,11.30
2019-05-30T06:18:12.917Z,11.30
2019-05-30T06:23:08.471Z,11.30
2019-05-30T06:28:05.971Z,11.30
2019-05-30T06:33:07.127Z,11.40
2019-05-30T06:38:07.325Z,11.40
2019-05-30T06:43:03.092Z,11.40
2019-05-30T06:48:00.988Z,11.50
2019-05-30T06:52:56.699Z,11.40
2019-05-30T06:57:52.247Z,11.40
2019-05-30T07:02:47.936Z,11.50
2019-05-30T07:07:43.624Z,11.40
2019-05-30T07:12:39.376Z,11.50
2019-05-30T07:17:34.923Z,11.50
2019-05-30T07:22:31.790Z,11.60
2019-05-30T07:27:27.842Z,11.60
2019-05-30T07:32:24.088Z,11.60
2019-05-30T07:37:19.742Z,11.60
2019-05-30T07:42:15.306Z,11.60
2019-05-30T07:47:10.826Z,11.70
2019-05-30T07:52:06.415Z,11.70
2019-05-30T07:57:02.011Z,11.80
2019-05-30T08:01:57.581Z,11.90
2019-05-30T08:06:53.191Z,11.90
2019-05-30T08:11:48.775Z,12.00
2019-05-30T08:16:44.330Z,12.20
2019-05-30T08:21:39.962Z,12.20
2019-05-30T08:26:36.457Z,12.40
2019-05-30T08:31:32.499Z,12.60
2019-05-30T08:36:28.751Z,12.90
2019-05-30T08:41:24.367Z,13.20
2019-05-30T08:46:19.906Z,13.20
2019-05-30T08:51:38.257Z,13.20
2019-05-30T08:56:34.527Z,13.30
2019-05-30T09:01:30.349Z,13.30
2019-05-30T09:06:25.914Z,13.40
2019-05-30T09:11:21.510Z,13.40
2019-05-30T09:16:17.066Z,13.50
2019-05-30T09:21:12.642Z,13.60
2019-05-30T09:26:08.794Z,13.70
2019-05-30T09:31:04.477Z,13.90
2019-05-30T09:36:12.694Z,14.10
2019-05-30T09:40:57.367Z,14.10
2019-05-30T09:45:53.120Z,14.20
2019-05-30T09:50:48.830Z,14.30
2019-05-30T09:55:44.442Z,14.40
2019-05-30T10:00:40.108Z,14.50
2019-05-30T10:05:35.701Z,14.50
2019-05-30T10:10:31.286Z,14.40
2019-05-30T10:15:26.987Z,14.30
2019-05-30T10:20:22.728Z,14.20
2019-05-30T10:25:18.320Z,14.30
2019-05-30T10:30:14.703Z,14.20
2019-05-30T10:35:10.482Z,14.20
2019-05-30T10:40:07.049Z,14.20
2019-05-30T10:45:02.632Z,14.10
2019-05-30T10:49:58.311Z,14.30
2019-05-30T10:54:53.842Z,14.40
2019-05-30T10:59:50.870Z,14.50
2019-05-30T11:04:47.666Z,14.70
2019-05-30T11:09:48.659Z,14.80
2019-05-30T11:14:45.393Z,15.10
2019-05-30T11:19:40.918Z,15.50
2019-05-30T11:24:36.558Z,15.80
2019-05-30T11:29:32.311Z,16.20
2019-05-30T11:34:27.885Z,16.30
2019-05-30T11:39:23.491Z,16.20
2019-05-30T11:44:19.027Z,16.20
2019-05-30T11:49:14.624Z,16.30
2019-05-30T11:54:10.135Z,16.30
2019-05-30T11:59:05.768Z,16.20
2019-05-30T12:04:01.806Z,16.30
2019-05-30T12:08:57.393Z,16.50
2019-05-30T12:13:53.418Z,16.70
2019-05-30T12:18:49.143Z,16.60
2019-05-30T12:23:44.680Z,16.40
2019-05-30T12:28:40.267Z,16.70
2019-05-30T12:33:35.876Z,16.90
2019-05-30T12:38:31.475Z,17.30
2019-05-30T12:43:27.177Z,17.30
2019-05-30T12:48:22.775Z,17.40
2019-05-30T12:53:18.427Z,17.60
2019-05-30T12:58:14.030Z,17.60
2019-05-30T13:03:09.622Z,17.50
2019-05-30T13:08:18.050Z,17.60
2019-05-30T13:13:02.424Z,17.90
2019-05-30T13:17:58.853Z,17.80
2019-05-30T13:22:54.609Z,17.20
2019-05-30T13:27:50.640Z,16.90
2019-05-30T13:32:46.281Z,16.70
2019-05-30T13:37:41.870Z,16.60
2019-05-30T13:42:37.551Z,16.50
2019-05-30T13:47:33.087Z,16.50
2019-05-30T13:52:28.694Z,16.50
2019-05-30T13:57:24.426Z,16.30
2019-05-30T14:02:20.033Z,16.20
2019-05-30T14:07:15.625Z,16.10
2019-05-30T14:12:11.258Z,16.00
2019-05-30T14:17:13.742Z,15.80
2019-05-30T14:22:09.451Z,15.60
2019-05-30T14:27:05.851Z,15.40
2019-05-30T14:32:07.874Z,15.30
2019-05-30T14:37:06.417Z,15.20
2019-05-30T14:42:04.966Z,15.20
2019-05-30T14:47:00.654Z,15.10
2019-05-30T14:51:56.304Z,15.10
2019-05-30T14:56:51.851Z,15.10
2019-05-30T15:01:47.467Z,15.20
2019-05-30T15:06:43.047Z,15.20
2019-05-30T15:11:38.675Z,15.10
2019-05-30T15:16:34.380Z,14.90
2019-05-30T15:21:30.044Z,14.90
2019-05-30T15:26:25.724Z,14.90
2019-05-30T15:31:21.392Z,14.70
2019-05-30T15:36:17.259Z,14.60
2019-05-30T15:41:13.204Z,14.70
2019-05-30T15:46:09.794Z,14.70
2019-05-30T15:51:05.567Z,14.80
2019-05-30T15:56:01.340Z,14.70
2019-05-30T16:00:57.025Z,14.70
2019-05-30T16:05:52.655Z,14.80
2019-05-30T16:10:49.438Z,15.00
2019-05-30T16:15:45.212Z,14.90
2019-05-30T16:20:40.895Z,14.80
2019-05-30T16:25:36.575Z,14.80
2019-05-30T16:30:32.241Z,14.70
2019-05-30T16:35:27.867Z,14.50
2019-05-30T16:40:23.573Z,14.50
2019-05-30T16:45:22.253Z,14.50
2019-05-30T16:50:16.695Z,14.50
2019-05-30T16:55:12.996Z,14.50
2019-05-30T17:00:10.579Z,14.30
2019-05-30T17:05:06.497Z,14.30
2019-05-30T17:10:02.197Z,14.10
2019-05-30T17:14:58.039Z,14.00
2019-05-30T17:19:53.731Z,13.90
2019-05-30T17:24:49.405Z,13.80
2019-05-30T17:29:45.060Z,13.70
2019-05-30T17:34:40.735Z,13.60
2019-05-30T17:39:36.514Z,13.50
2019-05-30T17:44:32.168Z,13.50
2019-05-30T17:49:27.966Z,13.50
2019-05-30T17:54:23.879Z,13.50
2019-05-30T17:59:20.170Z,13.40
2019-05-30T18:04:15.857Z,13.40
2019-05-30T18:09:11.506Z,13.40
2019-05-30T18:14:07.199Z,13.30
2019-05-30T18:19:02.848Z,13.30
2019-05-30T18:23:58.670Z,13.30
2019-05-30T18:28:54.483Z,13.30
2019-05-30T18:33:50.206Z,13.20
2019-05-30T18:38:47.649Z,13.00
2019-05-30T18:43:43.425Z,12.90
2019-05-30T18:48:50.586Z,12.80
2019-05-30T18:53:47.620Z,12.70
2019-05-30T18:58:43.625Z,12.60
2019-05-30T19:03:39.335Z,12.60
2019-05-30T19:08:36.077Z,12.60
2019-05-30T19:13:33.049Z,12.60
2019-05-30T19:18:29.479Z,12.60
2019-05-30T19:23:25.950Z,12.70
2019-05-30T19:28:21.811Z,12.60
2019-05-30T19:33:20.634Z,12.50
2019-05-30T19:38:14.742Z,12.50
2019-05-30T19:43:10.492Z,12.50
2019-05-30T19:53:20.802Z,12.40
2019-05-30T19:58:16.310Z,12.40
2019-05-30T20:03:11.882Z,12.40
2019-05-30T20:08:07.447Z,12.40
2019-05-30T20:13:03.078Z,12.40
2019-05-30T20:17:58.747Z,12.50
2019-05-30T20:22:54.454Z,12.50
2019-05-30T20:27:50.628Z,12.50
2019-05-30T20:32:47.213Z,12.40
2019-05-30T20:37:43.060Z,12.40
2019-05-30T20:42:39.016Z,12.40
2019-05-30T20:47:35.983Z,12.40
2019-05-30T20:52:32.086Z,12.40
2019-05-30T20:57:27.720Z,12.40
2019-05-30T21:02:23.379Z,12.40
2019-05-30T21:07:19.767Z,12.30
2019-05-30T21:12:17.395Z,12.30
2019-05-30T21:17:14.376Z,12.30
2019-05-30T21:22:09.972Z,12.30
2019-05-30T21:27:05.537Z,12.30
2019-05-30T21:32:01.076Z,12.30
2019-05-30T21:36:56.615Z,12.20
2019-05-30T21:41:52.218Z,12.20
2019-05-30T21:46:48.999Z,12.10
2019-05-30T21:51:45.479Z,12.00
2019-05-30T21:56:41.939Z,12.00
2019-05-30T22:01:40.505Z,11.90
2019-05-30T22:06:36.580Z,11.90
2019-05-30T22:11:32.310Z,11.90
2019-05-30T22:16:27.970Z,11.90
2019-05-30T22:21:23.645Z,11.80
2019-05-30T22:26:19.239Z,11.70
2019-05-30T22:31:14.822Z,11.60
2019-05-30T22:36:10.439Z,11.60
2019-05-30T22:41:05.959Z,11.60
2019-05-30T22:46:01.510Z,11.50
2019-05-30T22:50:57.108Z,11.50
2019-05-30T22:55:53.631Z,11.50
2019-05-30T23:00:49.934Z,11.50
2019-05-30T23:05:47.278Z,11.50
2019-05-30T23:10:42.939Z,11.50
2019-05-30T23:15:38.579Z,11.50
2019-05-30T23:20:34.214Z,11.50
2019-05-30T23:25:29.757Z,11.50
2019-05-30T23:30:25.361Z,11.40
2019-05-30T23:35:20.899Z,11.40
2019-05-30T23:40:16.742Z,11.40
2019-05-30T23:45:12.570Z,11.40
2019-05-30T23:55:26.470Z,11.30
